Time;durP1;ratioP1;P1;durP2;ratioP2;P2;SDS_P1;SDS_P2;PMS_P1;PMS_P2;Temp;Humidity;BMP_temperature;BMP_pressure;BME280_temperature;BME280_humidity;BME280_pressure;Samples;Min_cycle;Max_cycle;Signal;HPM_P1;HPM_P2
2022/10/11 00:02:13;;;;;;;0.20;0.20;;;;;;;;;;5056275;28;20041;-75
2022/10/11 00:04:38;;;;;;;0.10;0.10;;;;;;;;;;5055992;28;20055;-75
2022/10/11 00:07:04;;;;;;;1.08;1.08;;;;;;;;;;5056061;28;20028;-76
2022/10/11 00:09:29;;;;;;;0.20;0.20;;;;;;;;;;5056045;28;20025;-76
2022/10/11 00:11:55;;;;;;;0.35;0.35;;;;;;;;;;5054620;28;20013;-75
2022/10/11 00:14:21;;;;;;;0.40;0.40;;;;;;;;;;5055714;28;20025;-75
2022/10/11 00:16:47;;;;;;;0.10;0.10;;;;;;;;;;5038583;28;20055;-76
2022/10/11 00:19:13;;;;;;;0.17;0.17;;;;;;;;;;5055706;28;20488;-75
2022/10/11 00:21:39;;;;;;;0.20;0.20;;;;;;;;;;5055695;28;20473;-76
2022/10/11 00:24:04;;;;;;;0.20;0.20;;;;;;;;;;5055679;28;20116;-76
2022/10/11 00:26:30;;;;;;;0.10;0.10;;;;;;;;;;5055514;28;20024;-75
2022/10/11 00:28:55;;;;;;;0.13;0.13;;;;;;;;;;5055821;28;20070;-75
2022/10/11 00:31:21;;;;;;;0.20;0.20;;;;;;;;;;5054099;28;20385;-77
2022/10/11 00:33:46;;;;;;;0.20;0.20;;;;;;;;;;5055994;28;20067;-77
2022/10/11 00:36:14;;;;;;;0.13;0.13;;;;;;;;;;5055318;28;20099;-77
2022/10/11 00:38:40;;;;;;;0.20;0.20;;;;;;;;;;5054149;28;20021;-76
2022/10/11 00:41:05;;;;;;;0.17;0.17;;;;;;;;;;5055232;28;20095;-75
2022/10/11 00:43:31;;;;;;;0.20;0.20;;;;;;;;;;5054047;28;20025;-75
2022/10/11 00:45:56;;;;;;;0.10;0.10;;;;;;;;;;5053808;28;20033;-76
2022/10/11 00:48:26;;;;;;;0.20;0.20;;;;;;;;;;5055159;28;20024;-75
2022/10/11 00:50:53;;;;;;;0.20;0.20;;;;;;;;;;5055310;28;20021;-74
2022/10/11 00:53:18;;;;;;;0.15;0.15;;;;;;;;;;5054492;28;20025;-77
2022/10/11 00:55:48;;;;;;;0.20;0.20;;;;;;;;;;5053899;28;20372;-77
2022/10/11 00:58:13;;;;;;;0.20;0.20;;;;;;;;;;5054987;28;20036;-77
2022/10/11 01:00:39;;;;;;;0.10;0.10;;;;;;;;;;5054578;28;20044;-78
2022/10/11 01:03:05;;;;;;;0.20;0.20;;;;;;;;;;5055248;28;20439;-76
2022/10/11 01:05:30;;;;;;;0.20;0.20;;;;;;;;;;5055008;28;20075;-76
2022/10/11 01:07:57;;;;;;;0.20;0.20;;;;;;;;;;5054836;28;20029;-77
2022/10/11 01:10:23;;;;;;;0.20;0.20;;;;;;;;;;5054790;28;20044;-76
2022/10/11 01:12:59;;;;;;;0.10;0.10;;;;;;;;;;5054682;28;20112;-75
2022/10/11 01:15:28;;;;;;;0.20;0.20;;;;;;;;;;5053612;28;20060;-76
2022/10/11 01:18:06;;;;;;;0.20;0.20;;;;;;;;;;5054784;28;20078;-76
2022/10/11 01:20:41;;;;;;;0.10;0.10;;;;;;;;;;5053401;28;20068;-76
2022/10/11 01:23:14;;;;;;;0.13;0.13;;;;;;;;;;5054599;28;20033;-78
2022/10/11 01:25:42;;;;;;;1.35;1.35;;;;;;;;;;5054608;28;20044;-77
2022/10/11 01:28:26;;;;;;;0.20;0.20;;;;;;;;;;5054597;28;20055;-78
2022/10/11 01:30:53;;;;;;;0.13;0.13;;;;;;;;;;5054562;28;20033;-79
2022/10/11 01:33:28;;;;;;;0.20;0.20;;;;;;;;;;5053414;28;20041;-78
2022/10/11 01:35:53;;;;;;;0.17;0.17;;;;;;;;;;5054138;28;20029;-77
2022/10/11 01:38:27;;;;;;;0.22;0.22;;;;;;;;;;5054138;28;20025;-77
2022/10/11 01:40:55;;;;;;;0.15;0.15;;;;;;;;;;5054102;28;20514;-76
2022/10/11 01:43:21;;;;;;;0.10;0.10;;;;;;;;;;5053839;28;20025;-75
2022/10/11 01:45:49;;;;;;;0.22;0.22;;;;;;;;;;5054100;28;20029;-76
2022/10/11 01:48:15;;;;;;;0.10;0.10;;;;;;;;;;5052817;28;20020;-75
2022/10/11 01:50:40;;;;;;;0.10;0.10;;;;;;;;;;5053850;28;20467;-76
2022/10/11 01:53:12;;;;;;;0.10;0.10;;;;;;;;;;5054592;28;20027;-76
2022/10/11 01:55:41;;;;;;;0.15;0.15;;;;;;;;;;5054170;28;20132;-76
2022/10/11 01:58:12;;;;;;;0.10;0.10;;;;;;;;;;5054006;28;20369;-75
2022/10/11 02:01:01;;;;;;;0.57;0.57;;;;;;;;;;5052542;28;20087;-75
2022/10/11 02:03:32;;;;;;;0.10;0.10;;;;;;;;;;5047015;28;20098;-76
2022/10/11 02:05:58;;;;;;;0.10;0.10;;;;;;;;;;5054148;28;20817;-74
2022/10/11 02:08:30;;;;;;;0.30;0.30;;;;;;;;;;5053656;28;20384;-76
2022/10/11 02:10:58;;;;;;;0.10;0.10;;;;;;;;;;5053693;28;20407;-74
2022/10/11 02:13:44;;;;;;;0.10;0.10;;;;;;;;;;5053630;28;20025;-76
2022/10/11 02:16:11;;;;;;;0.10;0.10;;;;;;;;;;5053038;28;20441;-78
2022/10/11 02:18:40;;;;;;;0.20;0.20;;;;;;;;;;5054401;28;20048;-77
2022/10/11 02:21:07;;;;;;;0.10;0.10;;;;;;;;;;5052289;28;20045;-78
2022/10/11 02:23:47;;;;;;;0.20;0.20;;;;;;;;;;5053456;28;20081;-76
2022/10/11 02:26:13;;;;;;;0.20;0.20;;;;;;;;;;5053356;28;20039;-76
2022/10/11 02:28:40;;;;;;;0.20;0.20;;;;;;;;;;5053804;28;20025;-77
2022/10/11 02:31:07;;;;;;;0.20;0.20;;;;;;;;;;5053576;28;20028;-77
2022/10/11 02:33:36;;;;;;;0.20;0.20;;;;;;;;;;5053445;28;20020;-77
2022/10/11 02:36:09;;;;;;;0.20;0.20;;;;;;;;;;5069433;28;20400;-76
2022/10/11 02:38:37;;;;;;;0.20;0.20;;;;;;;;;;5053241;28;20048;-76
2022/10/11 02:41:17;;;;;;;0.10;0.10;;;;;;;;;;5056873;28;20056;-79
2022/10/11 02:43:46;;;;;;;0.20;0.20;;;;;;;;;;5053260;28;20025;-75
2022/10/11 02:46:12;;;;;;;0.10;0.10;;;;;;;;;;5052059;28;20028;-76
2022/10/11 02:48:38;;;;;;;0.35;0.35;;;;;;;;;;5053185;28;20147;-76
2022/10/11 02:51:04;;;;;;;0.10;0.10;;;;;;;;;;5052426;28;20025;-76
2022/10/11 02:53:30;;;;;;;0.10;0.10;;;;;;;;;;5051610;28;20486;-76
2022/10/11 02:55:55;;;;;;;0.10;0.10;;;;;;;;;;5050969;28;20118;-76
2022/10/11 02:58:21;;;;;;;0.10;0.10;;;;;;;;;;5051978;28;20175;-76
2022/10/11 03:00:47;;;;;;;0.20;0.20;;;;;;;;;;5052954;28;20530;-75
2022/10/11 03:03:13;;;;;;;0.20;0.20;;;;;;;;;;5049826;28;20124;-76
2022/10/11 03:05:42;;;;;;;0.20;0.20;;;;;;;;;;5049442;28;20037;-77
2022/10/11 03:08:08;;;;;;;;;;;;;;;;;;5049585;28;20013;-78
2022/10/11 03:10:34;;;;;;;0.13;0.13;;;;;;;;;;5049253;28;20399;-78
2022/10/11 03:13:00;;;;;;;0.35;0.35;;;;;;;;;;5049278;28;20029;-79
2022/10/11 03:15:25;;;;;;;0.15;0.15;;;;;;;;;;5049304;28;20460;-77
2022/10/11 03:17:51;;;;;;;0.40;0.40;;;;;;;;;;5048908;28;20480;-77
2022/10/11 03:20:16;;;;;;;0.20;0.20;;;;;;;;;;5064599;28;20372;-76
2022/10/11 03:22:42;;;;;;;0.00;0.00;;;;;;;;;;5051004;28;20032;-73
2022/10/11 03:25:08;;;;;;;0.10;0.10;;;;;;;;;;5065834;28;20029;-72
2022/10/11 03:27:33;;;;;;;0.20;0.20;;;;;;;;;;5049166;28;20029;-75
2022/10/11 03:29:59;;;;;;;0.65;0.65;;;;;;;;;;5049055;28;20131;-76
2022/10/11 03:32:25;;;;;;;0.20;0.20;;;;;;;;;;5048799;28;20406;-76
2022/10/11 03:34:51;;;;;;;0.20;0.20;;;;;;;;;;5048716;28;20064;-76
2022/10/11 03:37:17;;;;;;;0.10;0.10;;;;;;;;;;5048633;28;20031;-75
2022/10/11 03:39:44;;;;;;;0.10;0.10;;;;;;;;;;5049014;28;20372;-75
2022/10/11 03:42:09;;;;;;;0.20;0.20;;;;;;;;;;5049494;28;20044;-76
2022/10/11 03:44:35;;;;;;;0.10;0.10;;;;;;;;;;5049107;28;20033;-72
2022/10/11 03:47:00;;;;;;;0.20;0.20;;;;;;;;;;5048558;28;20021;-75
2022/10/11 03:49:26;;;;;;;0.20;0.20;;;;;;;;;;5049045;28;20104;-76
2022/10/11 03:51:51;;;;;;;0.10;0.10;;;;;;;;;;5048740;28;20098;-72
2022/10/11 03:54:17;;;;;;;0.10;0.10;;;;;;;;;;5049110;28;20431;-76
2022/10/11 03:56:42;;;;;;;0.10;0.10;;;;;;;;;;5048481;28;20021;-72
2022/10/11 03:59:08;;;;;;;0.10;0.10;;;;;;;;;;5048971;28;20029;-76
2022/10/11 04:01:36;;;;;;;0.20;0.20;;;;;;;;;;5060795;28;20037;-75
2022/10/11 04:04:02;;;;;;;0.10;0.10;;;;;;;;;;5061187;28;20142;-76
2022/10/11 04:06:27;;;;;;;0.40;0.40;;;;;;;;;;5057596;28;20567;-76
2022/10/11 04:08:53;;;;;;;0.10;0.10;;;;;;;;;;5051984;28;20033;-77
2022/10/11 04:11:18;;;;;;;0.10;0.10;;;;;;;;;;5052052;28;20090;-77
2022/10/11 04:13:44;;;;;;;0.20;0.20;;;;;;;;;;5052445;28;20033;-76
2022/10/11 04:16:10;;;;;;;0.13;0.13;;;;;;;;;;5052127;28;20021;-74
2022/10/11 04:18:35;;;;;;;3.28;3.05;;;;;;;;;;5052507;28;20464;-75
2022/10/11 04:21:01;;;;;;;0.10;0.10;;;;;;;;;;5060209;28;20845;-75
2022/10/11 04:23:26;;;;;;;0.20;0.20;;;;;;;;;;5071958;28;20040;-75
2022/10/11 04:25:52;;;;;;;0.20;0.20;;;;;;;;;;5071766;28;20066;-74
2022/10/11 04:28:17;;;;;;;0.10;0.10;;;;;;;;;;5071557;28;20037;-74
2022/10/11 04:30:42;;;;;;;0.10;0.10;;;;;;;;;;5071873;28;20490;-75
2022/10/11 04:33:10;;;;;;;0.20;0.20;;;;;;;;;;5054134;28;20566;-75
2022/10/11 04:35:36;;;;;;;0.10;0.10;;;;;;;;;;5060124;28;20021;-74
2022/10/11 04:38:01;;;;;;;0.10;0.10;;;;;;;;;;5051475;28;20032;-74
2022/10/11 04:40:27;;;;;;;0.10;0.10;;;;;;;;;;5051511;28;20048;-75
2022/10/11 04:42:52;;;;;;;0.10;0.10;;;;;;;;;;5051476;28;20029;-74
2022/10/11 04:45:18;;;;;;;0.10;0.10;;;;;;;;;;5050870;28;20107;-70
2022/10/11 04:47:44;;;;;;;0.10;0.10;;;;;;;;;;5051780;28;20119;-73
2022/10/11 04:50:09;;;;;;;0.10;0.10;;;;;;;;;;5051995;28;20107;-73
2022/10/11 04:52:35;;;;;;;0.20;0.20;;;;;;;;;;5051166;28;20536;-74
2022/10/11 04:55:00;;;;;;;0.10;0.10;;;;;;;;;;5050808;28;20040;-72
2022/10/11 04:57:26;;;;;;;0.20;0.20;;;;;;;;;;5050998;28;20039;-74
2022/10/11 04:59:51;;;;;;;0.10;0.10;;;;;;;;;;5058319;28;20025;-73
2022/10/11 05:02:17;;;;;;;0.10;0.10;;;;;;;;;;5066226;28;20044;-71
2022/10/11 05:04:42;;;;;;;0.10;0.10;;;;;;;;;;5054676;28;20530;-73
2022/10/11 05:07:08;;;;;;;0.10;0.10;;;;;;;;;;5059359;28;20440;-75
2022/10/11 05:09:33;;;;;;;0.10;0.10;;;;;;;;;;5057936;28;20029;-74
2022/10/11 05:11:59;;;;;;;0.10;0.10;;;;;;;;;;5065100;28;20032;-75
2022/10/11 05:14:24;;;;;;;0.10;0.10;;;;;;;;;;5070754;28;20400;-75
2022/10/11 05:16:50;;;;;;;0.20;0.20;;;;;;;;;;5069908;28;20045;-75
2022/10/11 05:19:15;;;;;;;0.10;0.10;;;;;;;;;;5067272;28;20469;-77
2022/10/11 05:21:40;;;;;;;0.10;0.10;;;;;;;;;;5051789;28;20093;-76
2022/10/11 05:24:06;;;;;;;0.10;0.10;;;;;;;;;;5061493;28;20057;-74
2022/10/11 05:26:31;;;;;;;0.57;0.57;;;;;;;;;;5058266;28;20526;-74
2022/10/11 05:28:57;;;;;;;0.10;0.10;;;;;;;;;;5070068;28;20065;-72
2022/10/11 05:31:23;;;;;;;0.10;0.10;;;;;;;;;;5069696;28;20032;-73
2022/10/11 05:33:48;;;;;;;0.10;0.10;;;;;;;;;;5069670;28;20044;-70
2022/10/11 05:36:14;;;;;;;0.13;0.13;;;;;;;;;;5069896;28;20025;-74
2022/10/11 05:38:39;;;;;;;0.10;0.10;;;;;;;;;;5069482;28;20013;-74
2022/10/11 05:41:05;;;;;;;0.10;0.10;;;;;;;;;;5069286;28;20471;-73
2022/10/11 05:43:31;;;;;;;0.17;0.17;;;;;;;;;;5069774;28;20032;-74
2022/10/11 05:45:57;;;;;;;3.95;2.17;;;;;;;;;;5069332;28;20029;-70
2022/10/11 05:48:23;;;;;;;0.20;0.20;;;;;;;;;;5067796;28;20257;-73
2022/10/11 05:50:49;;;;;;;0.20;0.20;;;;;;;;;;5068013;28;20040;-71
2022/10/11 05:53:14;;;;;;;0.10;0.10;;;;;;;;;;5049779;28;20028;-78
2022/10/11 05:55:41;;;;;;;0.10;0.10;;;;;;;;;;5063721;28;20471;-83
2022/10/11 05:58:07;;;;;;;0.30;0.30;;;;;;;;;;5056501;28;20027;-74
2022/10/11 06:00:34;;;;;;;0.10;0.10;;;;;;;;;;5050187;28;20039;-75
2022/10/11 06:03:00;;;;;;;0.17;0.17;;;;;;;;;;5055977;28;20074;-69
2022/10/11 06:05:26;;;;;;;0.13;0.13;;;;;;;;;;5066627;28;20388;-69
2022/10/11 06:07:51;;;;;;;0.10;0.10;;;;;;;;;;5068011;28;20419;-70
2022/10/11 06:10:17;;;;;;;0.10;0.10;;;;;;;;;;5069675;28;20027;-69
2022/10/11 06:12:42;;;;;;;0.85;0.85;;;;;;;;;;5068925;28;20017;-69
2022/10/11 06:15:09;;;;;;;0.20;0.20;;;;;;;;;;5069034;28;20020;-69
2022/10/11 06:17:35;;;;;;;0.43;0.43;;;;;;;;;;5068110;28;20036;-69
2022/10/11 06:20:00;;;;;;;0.20;0.20;;;;;;;;;;5067557;28;20033;-69
2022/10/11 06:22:26;;;;;;;0.20;0.20;;;;;;;;;;5067697;28;20037;-69
2022/10/11 06:24:51;;;;;;;0.20;0.20;;;;;;;;;;5068023;28;20174;-69
2022/10/11 06:27:17;;;;;;;0.20;0.20;;;;;;;;;;5069460;28;20020;-69
2022/10/11 06:29:42;;;;;;;4.38;3.42;;;;;;;;;;5069662;28;20479;-69
2022/10/11 06:32:08;;;;;;;0.20;0.20;;;;;;;;;;5069559;28;20024;-69
2022/10/11 06:34:33;;;;;;;0.40;0.40;;;;;;;;;;5068157;28;20020;-69
2022/10/11 06:36:59;;;;;;;0.25;0.25;;;;;;;;;;5068829;28;20094;-69
2022/10/11 06:39:24;;;;;;;0.68;0.68;;;;;;;;;;5069398;28;20127;-69
2022/10/11 06:41:50;;;;;;;0.10;0.10;;;;;;;;;;5069671;28;20090;-69
2022/10/11 06:44:15;;;;;;;0.20;0.20;;;;;;;;;;5069336;28;20081;-69
2022/10/11 06:46:41;;;;;;;0.20;0.20;;;;;;;;;;5069214;28;20490;-69
2022/10/11 06:49:07;;;;;;;0.20;0.20;;;;;;;;;;5069271;28;20471;-70
2022/10/11 06:51:34;;;;;;;0.20;0.20;;;;;;;;;;5063703;28;20024;-70
2022/10/11 06:54:00;;;;;;;0.15;0.15;;;;;;;;;;5055785;28;20036;-70
2022/10/11 06:56:26;;;;;;;0.10;0.10;;;;;;;;;;5057284;28;20082;-70
2022/10/11 06:58:53;;;;;;;0.13;0.13;;;;;;;;;;5049759;28;20068;-70
2022/10/11 07:01:20;;;;;;;0.20;0.20;;;;;;;;;;5055517;28;20428;-69
2022/10/11 07:03:46;;;;;;;1.13;1.13;;;;;;;;;;5051521;28;20485;-69
2022/10/11 07:06:12;;;;;;;0.20;0.20;;;;;;;;;;5049135;28;20025;-70
2022/10/11 07:08:38;;;;;;;4.18;2.20;;;;;;;;;;5056128;28;20028;-70
2022/10/11 07:11:11;;;;;;;0.40;0.40;;;;;;;;;;5054492;28;20065;-70
2022/10/11 07:13:37;;;;;;;2.45;1.95;;;;;;;;;;5053987;28;20341;-69
2022/10/11 07:16:03;;;;;;;0.22;0.22;;;;;;;;;;5053297;28;20047;-69
2022/10/11 07:18:29;;;;;;;0.30;0.30;;;;;;;;;;5052931;28;20132;-69
2022/10/11 07:20:54;;;;;;;0.68;0.68;;;;;;;;;;5052039;28;20116;-69
2022/10/11 07:23:20;;;;;;;0.20;0.20;;;;;;;;;;5052697;28;20159;-69
2022/10/11 07:25:46;;;;;;;0.20;0.20;;;;;;;;;;5049520;28;20029;-68
2022/10/11 07:28:12;;;;;;;0.20;0.20;;;;;;;;;;5051521;28;20017;-69
2022/10/11 07:30:38;;;;;;;0.13;0.13;;;;;;;;;;5049391;28;20028;-69
2022/10/11 07:33:04;;;;;;;1.05;0.65;;;;;;;;;;5052805;28;20032;-69
2022/10/11 07:35:30;;;;;;;0.30;0.30;;;;;;;;;;5053980;28;20021;-69
2022/10/11 07:37:55;;;;;;;0.43;0.25;;;;;;;;;;5059496;28;20029;-69
2022/10/11 07:40:21;;;;;;;0.20;0.20;;;;;;;;;;5057370;28;20028;-70
2022/10/11 07:42:46;;;;;;;0.20;0.20;;;;;;;;;;5059916;28;20017;-69
2022/10/11 07:45:11;;;;;;;0.15;0.15;;;;;;;;;;5053089;28;20031;-70
2022/10/11 07:47:38;;;;;;;0.10;0.10;;;;;;;;;;5056979;28;20426;-70
2022/10/11 07:50:04;;;;;;;0.30;0.30;;;;;;;;;;5066340;28;20372;-70
2022/10/11 07:52:30;;;;;;;0.20;0.20;;;;;;;;;;5061014;28;20025;-70
2022/10/11 07:54:55;;;;;;;0.30;0.30;;;;;;;;;;5058290;28;20059;-70
2022/10/11 07:57:20;;;;;;;0.30;0.30;;;;;;;;;;5066745;28;20033;-71
2022/10/11 07:59:46;;;;;;;0.30;0.30;;;;;;;;;;5037049;28;20071;-69
2022/10/11 08:02:12;;;;;;;0.10;0.10;;;;;;;;;;5051890;28;20078;-69
2022/10/11 08:04:37;;;;;;;0.20;0.20;;;;;;;;;;5050964;28;20372;-69
2022/10/11 08:07:03;;;;;;;0.20;0.20;;;;;;;;;;5053084;28;20086;-69
2022/10/11 08:09:29;;;;;;;0.20;0.20;;;;;;;;;;5059364;28;20116;-69
2022/10/11 08:11:54;;;;;;;0.68;0.68;;;;;;;;;;5052164;28;20036;-69
2022/10/11 08:14:20;;;;;;;0.20;0.20;;;;;;;;;;5053238;28;20040;-70
2022/10/11 08:16:45;;;;;;;0.20;0.20;;;;;;;;;;5072203;28;20075;-70
2022/10/11 08:19:11;;;;;;;0.20;0.20;;;;;;;;;;5054167;28;20440;-71
2022/10/11 08:21:36;;;;;;;0.57;0.57;;;;;;;;;;5051856;28;20033;-70
2022/10/11 08:24:03;;;;;;;0.20;0.20;;;;;;;;;;5057714;28;20460;-71
2022/10/11 08:26:29;;;;;;;0.20;0.20;;;;;;;;;;5064335;28;20032;-71
2022/10/11 08:28:54;;;;;;;0.20;0.20;;;;;;;;;;5059508;28;20024;-70
2022/10/11 08:31:20;;;;;;;0.20;0.20;;;;;;;;;;5059660;28;20357;-70
2022/10/11 08:33:45;;;;;;;0.93;0.93;;;;;;;;;;5059701;28;20170;-70
2022/10/11 08:36:11;;;;;;;0.30;0.30;;;;;;;;;;5051508;28;20044;-70
2022/10/11 08:38:37;;;;;;;0.20;0.20;;;;;;;;;;5059950;28;20434;-70
2022/10/11 08:41:13;;;;;;;0.20;0.20;;;;;;;;;;5056112;28;20033;-70
2022/10/11 08:43:41;;;;;;;0.22;0.22;;;;;;;;;;5054915;28;20074;-70
2022/10/11 08:46:07;;;;;;;0.53;0.53;;;;;;;;;;5054795;28;20409;-70
2022/10/11 08:48:44;;;;;;;0.20;0.20;;;;;;;;;;5056487;28;20032;-70
2022/10/11 08:51:17;;;;;;;0.30;0.30;;;;;;;;;;5064695;28;20036;-70
2022/10/11 08:53:50;;;;;;;0.10;0.10;;;;;;;;;;5049403;28;20088;-70
2022/10/11 08:56:16;;;;;;;0.40;0.40;;;;;;;;;;5063148;28;20033;-70
2022/10/11 08:58:47;;;;;;;0.20;0.20;;;;;;;;;;5058213;28;20538;-70
2022/10/11 09:01:15;;;;;;;0.20;0.20;;;;;;;;;;5059030;28;20040;-69
2022/10/11 09:03:42;;;;;;;0.20;0.20;;;;;;;;;;5056048;28;20063;-70
2022/10/11 09:06:26;;;;;;;0.20;0.20;;;;;;;;;;5054277;28;20532;-69
2022/10/11 09:09:12;;;;;;;0.40;0.40;;;;;;;;;;5052231;28;20032;-71
2022/10/11 09:11:46;;;;;;;0.20;0.20;;;;;;;;;;5039613;28;20632;-69
2022/10/11 09:14:30;;;;;;;0.30;0.30;;;;;;;;;;5056719;28;20037;-69
2022/10/11 09:17:20;;;;;;;0.30;0.30;;;;;;;;;;5070419;28;20473;-71
2022/10/11 09:19:45;;;;;;;0.30;0.30;;;;;;;;;;5070719;28;20287;-70
2022/10/11 09:22:23;;;;;;;0.20;0.20;;;;;;;;;;5069803;28;20028;-70
2022/10/11 09:25:07;;;;;;;0.20;0.20;;;;;;;;;;5068712;28;20037;-69
2022/10/11 09:27:42;;;;;;;0.40;0.40;;;;;;;;;;5068728;28;20024;-69
2022/10/11 09:30:13;;;;;;;0.20;0.20;;;;;;;;;;5067155;28;20040;-69
2022/10/11 09:32:41;;;;;;;0.20;0.20;;;;;;;;;;5068210;28;20040;-69
2022/10/11 09:35:14;;;;;;;0.20;0.20;;;;;;;;;;5068674;28;20030;-69
2022/10/11 09:37:58;;;;;;;0.20;0.20;;;;;;;;;;5069358;28;20043;-69
2022/10/11 09:40:26;;;;;;;0.15;0.15;;;;;;;;;;5070419;28;20465;-69
2022/10/11 09:42:52;;;;;;;0.20;0.20;;;;;;;;;;5063197;28;20040;-69
2022/10/11 09:45:18;;;;;;;0.20;0.20;;;;;;;;;;5049795;28;20033;-69
2022/10/11 09:47:44;;;;;;;0.20;0.20;;;;;;;;;;5048938;28;20025;-69
2022/10/11 09:50:18;;;;;;;0.20;0.20;;;;;;;;;;5050397;28;20033;-69
2022/10/11 09:52:51;;;;;;;0.22;0.22;;;;;;;;;;5048915;28;20033;-68
2022/10/11 09:55:30;;;;;;;0.22;0.22;;;;;;;;;;5067510;28;20060;-68
2022/10/11 09:57:56;;;;;;;;;;;;;;;;;;5069213;28;20024;-69
2022/10/11 10:00:25;;;;;;;0.20;0.20;;;;;;;;;;5069634;28;19916;-69
2022/10/11 10:02:51;;;;;;;0.20;0.20;;;;;;;;;;5069699;28;20503;-69
2022/10/11 10:05:18;;;;;;;0.28;0.28;;;;;;;;;;5050838;28;20037;-69
2022/10/11 10:08:02;;;;;;;0.90;0.75;;;;;;;;;;5050025;28;20423;-69
2022/10/11 10:10:27;;;;;;;0.20;0.20;;;;;;;;;;5058821;28;20107;-69
2022/10/11 10:12:58;;;;;;;0.20;0.20;;;;;;;;;;5053677;28;20120;-69
2022/10/11 10:15:27;;;;;;;0.20;0.20;;;;;;;;;;5048612;28;20028;-69
2022/10/11 10:17:52;;;;;;;0.20;0.20;;;;;;;;;;5049581;28;20447;-69
2022/10/11 10:20:26;;;;;;;0.20;0.20;;;;;;;;;;5049323;28;20104;-69
2022/10/11 10:22:52;;;;;;;7.93;1.67;;;;;;;;;;5049084;28;20032;-69
2022/10/11 10:25:37;;;;;;;0.30;0.30;;;;;;;;;;5048422;28;20334;-69
2022/10/11 10:28:15;;;;;;;0.38;0.38;;;;;;;;;;5048157;28;20025;-70
2022/10/11 10:30:52;;;;;;;0.20;0.20;;;;;;;;;;5047248;28;20025;-69
2022/10/11 10:33:19;;;;;;;0.50;0.50;;;;;;;;;;5049008;28;20033;-69
2022/10/11 10:35:48;;;;;;;1.17;1.10;;;;;;;;;;5051300;28;20357;-69
2022/10/11 10:38:16;;;;;;;0.50;0.50;;;;;;;;;;5055057;28;20033;-70
2022/10/11 10:40:44;;;;;;;4.90;1.10;;;;;;;;;;5049090;28;20202;-69
2022/10/11 10:43:14;;;;;;;1.42;1.30;;;;;;;;;;5050220;28;20734;-69
2022/10/11 10:46:02;;;;;;;0.82;0.70;;;;;;;;;;5062569;28;20143;-69
2022/10/11 10:48:47;;;;;;;0.20;0.20;;;;;;;;;;5040522;28;20051;-69
2022/10/11 10:51:18;;;;;;;0.20;0.20;;;;;;;;;;5061923;28;20040;-69
2022/10/11 10:53:46;;;;;;;0.30;0.30;;;;;;;;;;5049388;28;20529;-69
2022/10/11 10:56:14;;;;;;;6.95;0.93;;;;;;;;;;5051380;28;20059;-69
2022/10/11 10:58:40;;;;;;;0.25;0.25;;;;;;;;;;5058225;28;20037;-69
2022/10/11 11:01:22;;;;;;;0.43;0.43;;;;;;;;;;5057707;28;20055;-69
2022/10/11 11:03:58;;;;;;;1.55;0.75;;;;;;;;;;5052038;28;20049;-70
2022/10/11 11:06:56;;;;;;;1.45;0.95;;;;;;;;;;5061262;28;20111;-70
2022/10/11 11:09:33;;;;;;;2.40;0.93;;;;;;;;;;5036458;28;20033;-69
2022/10/11 11:12:15;;;;;;;2.33;1.05;;;;;;;;;;5058978;28;20028;-69
2022/10/11 11:14:50;;;;;;;1.92;1.73;;;;;;;;;;5063391;28;20051;-69
2022/10/11 11:17:34;;;;;;;0.20;0.20;;;;;;;;;;5053511;28;20052;-69
2022/10/11 11:20:05;;;;;;;0.65;0.65;;;;;;;;;;5053014;28;20047;-69
2022/10/11 11:22:41;;;;;;;0.52;0.52;;;;;;;;;;5060319;28;20480;-69
2022/10/11 11:25:07;;;;;;;1.55;0.85;;;;;;;;;;5058534;28;20024;-69
2022/10/11 11:27:35;;;;;;;1.08;0.93;;;;;;;;;;5053175;28;20025;-69
2022/10/11 11:30:07;;;;;;;0.22;0.22;;;;;;;;;;5054223;28;20116;-69
2022/10/11 11:32:42;;;;;;;3.95;1.38;;;;;;;;;;5059731;28;20017;-71
2022/10/11 11:35:13;;;;;;;0.52;0.52;;;;;;;;;;5057764;28;20037;-69
2022/10/11 11:37:40;;;;;;;0.68;0.68;;;;;;;;;;5057425;28;20104;-71
2022/10/11 11:40:16;;;;;;;3.10;1.67;;;;;;;;;;5063157;28;20028;-70
2022/10/11 11:42:45;;;;;;;5.45;1.70;;;;;;;;;;5060157;28;20171;-70
2022/10/11 11:45:14;;;;;;;3.07;1.97;;;;;;;;;;5062433;28;20034;-70
2022/10/11 11:47:42;;;;;;;0.38;0.38;;;;;;;;;;5066331;28;20039;-70
2022/10/11 11:50:13;;;;;;;0.25;0.25;;;;;;;;;;5071879;28;20106;-71
2022/10/11 11:52:44;;;;;;;0.60;0.60;;;;;;;;;;5059496;28;20037;-70
2022/10/11 11:55:13;;;;;;;3.42;1.85;;;;;;;;;;5055382;28;20032;-70
2022/10/11 11:57:51;;;;;;;0.40;0.40;;;;;;;;;;5059205;28;20020;-71
2022/10/11 12:00:18;;;;;;;1.17;1.17;;;;;;;;;;5066884;28;20078;-70
2022/10/11 12:02:58;;;;;;;0.65;0.65;;;;;;;;;;5062330;28;20472;-70
2022/10/11 12:05:26;;;;;;;5.15;1.92;;;;;;;;;;5056186;28;20039;-69
2022/10/11 12:07:57;;;;;;;3.17;1.30;;;;;;;;;;5064437;28;20036;-71
2022/10/11 12:10:28;;;;;;;3.22;2.15;;;;;;;;;;5056020;28;20044;-70
2022/10/11 12:13:16;;;;;;;1.45;1.02;;;;;;;;;;5059189;28;20547;-70
2022/10/11 12:15:59;;;;;;;0.40;0.40;;;;;;;;;;5059877;28;20028;-70
2022/10/11 12:18:25;;;;;;;0.40;0.40;;;;;;;;;;5059933;28;20033;-70
2022/10/11 12:21:05;;;;;;;0.40;0.40;;;;;;;;;;5060372;28;20059;-69
2022/10/11 12:23:30;;;;;;;;;;;;;;;;;;5061234;28;20028;-69
2022/10/11 12:26:14;;;;;;;0.30;0.30;;;;;;;;;;5064824;28;20008;-70
2022/10/11 12:28:39;;;;;;;1.15;0.98;;;;;;;;;;5063779;28;20279;-69
2022/10/11 12:31:16;;;;;;;0.40;0.40;;;;;;;;;;5060242;28;20379;-69
2022/10/11 12:33:41;;;;;;;2.60;2.40;;;;;;;;;;5071638;28;20024;-69
2022/10/11 12:36:25;;;;;;;1.88;1.00;;;;;;;;;;5052888;28;20052;-69
2022/10/11 12:39:09;;;;;;;0.50;0.50;;;;;;;;;;5059043;28;20384;-69
2022/10/11 12:41:37;;;;;;;8.75;1.35;;;;;;;;;;5071189;28;20119;-69
2022/10/11 12:44:07;;;;;;;1.77;0.98;;;;;;;;;;5071974;28;20035;-69
2022/10/11 12:46:53;;;;;;;0.20;0.20;;;;;;;;;;5071561;28;20025;-69
2022/10/11 12:49:36;;;;;;;1.80;1.20;;;;;;;;;;5064369;28;20080;-69
2022/10/11 12:52:21;;;;;;;4.43;1.13;;;;;;;;;;5070237;28;20100;-69
2022/10/11 12:54:55;;;;;;;2.72;1.80;;;;;;;;;;5070580;28;20129;-69
2022/10/11 12:57:39;;;;;;;0.28;0.28;;;;;;;;;;5068937;28;20476;-69
2022/10/11 13:00:31;;;;;;;2.13;0.98;;;;;;;;;;5069002;28;20071;-69
2022/10/11 13:02:58;;;;;;;0.77;0.57;;;;;;;;;;5060223;28;20043;-69
2022/10/11 13:05:26;;;;;;;0.38;0.38;;;;;;;;;;5069252;28;20031;-69
2022/10/11 13:07:53;;;;;;;1.92;1.10;;;;;;;;;;5067557;28;20025;-69
2022/10/11 13:10:27;;;;;;;15.20;1.48;;;;;;;;;;5069466;28;20393;-69
2022/10/11 13:12:53;;;;;;;0.52;0.52;;;;;;;;;;5070904;28;20093;-69
2022/10/11 13:15:20;;;;;;;3.75;1.58;;;;;;;;;;5069812;28;20040;-69
2022/10/11 13:17:47;;;;;;;2.45;1.30;;;;;;;;;;5070636;28;20531;-69
2022/10/11 13:20:16;;;;;;;1.13;0.68;;;;;;;;;;5070474;28;20185;-69
2022/10/11 13:22:42;;;;;;;0.30;0.30;;;;;;;;;;5069196;28;20036;-69
2022/10/11 13:25:08;;;;;;;0.35;0.35;;;;;;;;;;5070774;28;20107;-69
2022/10/11 13:27:35;;;;;;;1.02;0.65;;;;;;;;;;5070598;28;20155;-69
2022/10/11 13:30:04;;;;;;;1.83;1.20;;;;;;;;;;5070521;28;20040;-69
2022/10/11 13:32:30;;;;;;;1.00;0.88;;;;;;;;;;5070635;28;20116;-69
2022/10/11 13:35:11;;;;;;;0.40;0.30;;;;;;;;;;5052612;28;20086;-69
2022/10/11 13:37:40;;;;;;;2.22;1.42;;;;;;;;;;5070599;28;20035;-69
2022/10/11 13:40:11;;;;;;;0.38;0.38;;;;;;;;;;5069929;28;20477;-70
2022/10/11 13:42:36;;;;;;;1.63;0.95;;;;;;;;;;5070126;28;20040;-69
2022/10/11 13:45:02;;;;;;;0.20;0.20;;;;;;;;;;5070031;28;20412;-69
2022/10/11 13:47:29;;;;;;;1.73;1.17;;;;;;;;;;5070245;28;20028;-69
2022/10/11 13:50:02;;;;;;;0.45;0.45;;;;;;;;;;5069881;28;20497;-69
2022/10/11 13:52:28;;;;;;;0.80;0.70;;;;;;;;;;5070461;28;20074;-69
2022/10/11 13:55:07;;;;;;;0.20;0.20;;;;;;;;;;5069987;28;20407;-69
2022/10/11 13:57:38;;;;;;;0.50;0.40;;;;;;;;;;5070144;28;20017;-70
2022/10/11 14:00:18;;;;;;;0.82;0.73;;;;;;;;;;5068853;28;20105;-70
2022/10/11 14:02:46;;;;;;;2.50;1.45;;;;;;;;;;5069621;28;20047;-70
2022/10/11 14:05:22;;;;;;;4.95;1.15;;;;;;;;;;5065276;28;20532;-70
2022/10/11 14:07:48;;;;;;;5.88;2.95;;;;;;;;;;5067308;28;20480;-69
2022/10/11 14:10:21;;;;;;;1.50;0.70;;;;;;;;;;5069566;28;20039;-69
2022/10/11 14:12:56;;;;;;;1.30;0.80;;;;;;;;;;5051120;28;20093;-70
2022/10/11 14:15:22;;;;;;;3.45;1.08;;;;;;;;;;5069871;28;20024;-70
2022/10/11 14:17:47;;;;;;;0.77;0.70;;;;;;;;;;5069450;28;20515;-70
2022/10/11 14:20:15;;;;;;;4.82;1.10;;;;;;;;;;5069695;28;20036;-70
2022/10/11 14:22:41;;;;;;;0.20;0.20;;;;;;;;;;5069385;28;20479;-69
2022/10/11 14:25:07;;;;;;;0.28;0.28;;;;;;;;;;5069606;28;20025;-70
2022/10/11 14:27:32;;;;;;;0.30;0.30;;;;;;;;;;5069266;28;20035;-70
2022/10/11 14:29:58;;;;;;;0.32;0.32;;;;;;;;;;5069491;28;20108;-70
2022/10/11 14:32:28;;;;;;;5.80;1.42;;;;;;;;;;5069747;28;20036;-69
2022/10/11 14:34:53;;;;;;;0.40;0.40;;;;;;;;;;5068253;28;20027;-70
2022/10/11 14:37:20;;;;;;;0.20;0.20;;;;;;;;;;5060879;28;20036;-69
2022/10/11 14:39:46;;;;;;;0.60;0.60;;;;;;;;;;5051806;28;20032;-70
2022/10/11 14:42:12;;;;;;;5.18;2.40;;;;;;;;;;5055046;28;20016;-70
2022/10/11 14:44:37;;;;;;;0.20;0.20;;;;;;;;;;5055995;28;20032;-69
2022/10/11 14:47:05;;;;;;;0.30;0.30;;;;;;;;;;5049268;28;20126;-69
2022/10/11 14:49:32;;;;;;;1.02;0.93;;;;;;;;;;5054965;28;20031;-70
2022/10/11 14:51:58;;;;;;;0.15;0.15;;;;;;;;;;5061496;28;20445;-69
2022/10/11 14:54:25;;;;;;;0.25;0.25;;;;;;;;;;5058955;28;20067;-69